createdAt,value
2022-12-27T00:03:35.404Z,75.41
2022-12-27T00:14:04.005Z,75.51
2022-12-27T00:24:30.037Z,75.54
2022-12-27T00:34:57.519Z,75.55
2022-12-27T00:45:25.185Z,75.53
2022-12-27T00:55:52.813Z,75.67
2022-12-27T01:06:23.123Z,75.62
2022-12-27T01:16:51.336Z,75.59
2022-12-27T01:27:19.573Z,75.84
2022-12-27T01:37:47.123Z,75.70
2022-12-27T01:48:19.725Z,75.52
2022-12-27T01:58:51.970Z,75.29
2022-12-27T02:09:26.842Z,75.16
2022-12-27T02:20:02.659Z,75.37
2022-12-27T02:30:32.859Z,75.94
2022-12-27T02:41:21.687Z,76.12
2022-12-27T02:52:21.597Z,76.39
2022-12-27T03:03:25.035Z,76.87
2022-12-27T03:14:16.334Z,76.88
2022-12-27T03:25:13.508Z,77.07
2022-12-27T03:36:04.918Z,77.06
2022-12-27T03:46:35.972Z,76.45
2022-12-27T03:57:07.222Z,75.99
2022-12-27T04:07:34.773Z,75.62
2022-12-27T04:18:19.687Z,73.88
2022-12-27T04:29:04.757Z,73.51
2022-12-27T04:39:33.420Z,73.78
2022-12-27T04:50:18.914Z,73.82
2022-12-27T05:01:06.698Z,73.81
2022-12-27T05:11:56.074Z,74.08
2022-12-27T05:22:41.231Z,74.14
2022-12-27T05:33:09.644Z,74.16
2022-12-27T05:43:38.565Z,74.26
2022-12-27T05:54:06.503Z,74.76
2022-12-27T06:04:34.125Z,74.86
2022-12-27T06:15:01.686Z,75.14
2022-12-27T06:25:29.225Z,74.87
2022-12-27T06:35:56.965Z,74.33
2022-12-27T06:46:25.493Z,74.57
2022-12-27T06:56:53.207Z,74.35
2022-12-27T07:07:20.713Z,73.91
2022-12-27T07:17:48.227Z,73.20
2022-12-27T07:28:16.004Z,73.14
2022-12-27T07:38:43.898Z,72.70
2022-12-27T07:49:17.655Z,72.85
2022-12-27T07:59:45.502Z,72.66
2022-12-27T08:10:13.882Z,72.20
2022-12-27T08:20:41.587Z,71.46
2022-12-27T08:31:12.445Z,71.19
2022-12-27T08:41:40.170Z,71.01
2022-12-27T08:52:08.230Z,70.76
2022-12-27T09:02:35.730Z,70.86
2022-12-27T09:13:03.729Z,70.44
2022-12-27T09:23:32.442Z,70.03
2022-12-27T09:34:00.552Z,69.48
2022-12-27T09:44:37.529Z,69.01
2022-12-27T09:55:13.236Z,68.02
2022-12-27T10:05:45.240Z,67.16
2022-12-27T10:16:24.336Z,66.46
2022-12-27T10:26:53.499Z,65.33
2022-12-27T10:37:21.072Z,64.97
2022-12-27T10:47:48.711Z,64.17
2022-12-27T10:58:38.366Z,63.09
2022-12-27T11:09:25.795Z,62.54
2022-12-27T11:19:54.177Z,61.70
2022-12-27T11:30:28.435Z,60.84
2022-12-27T11:41:03.442Z,60.77
2022-12-27T11:51:52.192Z,59.68
2022-12-27T12:02:39.902Z,59.16
2022-12-27T12:13:20.019Z,59.04
2022-12-27T12:24:03.766Z,58.33
2022-12-27T12:34:47.181Z,58.07
2022-12-27T12:45:25.391Z,57.77
2022-12-27T12:56:07.039Z,57.64
2022-12-27T13:07:02.137Z,57.78
2022-12-27T13:17:37.316Z,58.15
2022-12-27T13:28:26.767Z,57.72
2022-12-27T13:39:18.555Z,56.98
2022-12-27T13:50:13.755Z,57.72
2022-12-27T14:00:49.542Z,58.00
2022-12-27T14:11:33.643Z,57.93
2022-12-27T14:22:23.228Z,58.01
2022-12-27T14:33:35.343Z,58.00
2022-12-27T14:44:35.303Z,58.22
2022-12-27T14:55:29.713Z,58.22
2022-12-27T15:06:12.197Z,58.39
2022-12-27T15:16:50.659Z,58.44
2022-12-27T15:27:27.827Z,58.34
2022-12-27T15:38:04.314Z,58.33
2022-12-27T15:49:02.749Z,58.69
2022-12-27T15:59:46.868Z,58.97
2022-12-27T16:10:48.829Z,59.19
2022-12-27T16:21:21.084Z,59.05
2022-12-27T16:31:51.949Z,59.21
2022-12-27T16:42:28.220Z,59.27
2022-12-27T16:53:10.092Z,59.50
2022-12-27T17:03:51.242Z,59.49
2022-12-27T17:14:25.427Z,59.69
2022-12-27T17:25:00.154Z,59.74
2022-12-27T17:35:34.239Z,59.59
2022-12-27T17:46:18.932Z,59.57
2022-12-27T17:57:05.764Z,59.66
2022-12-27T18:07:36.099Z,59.61
2022-12-27T18:18:06.136Z,59.79
2022-12-27T18:28:35.648Z,59.94
2022-12-27T18:39:06.398Z,60.48
2022-12-27T18:49:36.321Z,60.53
2022-12-27T19:00:14.556Z,60.84
2022-12-27T19:10:50.014Z,60.28
2022-12-27T19:21:19.026Z,60.16
2022-12-27T19:31:54.519Z,60.02
2022-12-27T19:42:29.716Z,60.90
2022-12-27T19:52:57.387Z,60.91
2022-12-27T20:03:25.609Z,60.69
2022-12-27T20:13:53.199Z,60.14
2022-12-27T20:24:20.824Z,59.99
2022-12-27T20:34:48.539Z,59.92
2022-12-27T20:45:16.223Z,60.11
2022-12-27T20:55:44.275Z,59.93
2022-12-27T21:06:14.456Z,59.78
2022-12-27T21:16:42.156Z,59.96
2022-12-27T21:27:09.650Z,60.26
2022-12-27T21:37:37.253Z,60.00
2022-12-27T21:48:04.818Z,60.16
2022-12-27T21:58:34.705Z,59.50
2022-12-27T22:09:03.922Z,59.90
2022-12-27T22:19:31.551Z,61.04
2022-12-27T22:29:59.118Z,61.52
2022-12-27T22:40:40.945Z,61.97
2022-12-27T22:51:17.728Z,62.29
2022-12-27T23:01:46.334Z,62.28
2022-12-27T23:12:12.765Z,62.38
2022-12-27T23:22:40.543Z,62.90
2022-12-27T23:33:08.790Z,63.18
2022-12-27T23:43:55.695Z,62.95
2022-12-27T23:54:23.753Z,63.44
